createdAt,value
2022-08-30T07:09:51.148Z,100142.97
2022-08-30T07:12:18.571Z,100147.06
2022-08-30T07:14:45.782Z,100146.13
2022-08-30T07:17:34.540Z,100147.59
2022-08-30T07:20:03.472Z,100146.22
2022-08-30T07:22:30.470Z,100152.69
2022-08-30T07:24:57.532Z,100154.97
2022-08-30T07:27:24.507Z,100153.19
2022-08-30T07:29:51.671Z,100158.09
2022-08-30T07:32:18.735Z,100156.59
2022-08-30T07:34:45.711Z,100150.75
2022-08-30T07:37:18.131Z,100157.59
2022-08-30T07:39:47.939Z,100144.19
2022-08-30T07:42:16.174Z,100154.25
2022-08-30T07:44:43.997Z,100150.25
2022-08-30T07:47:11.700Z,100155.25
2022-08-30T07:49:38.920Z,100160.91
2022-08-30T07:52:06.127Z,100165.16
2022-08-30T07:54:33.132Z,100155.75
2022-08-30T07:57:00.207Z,100153.94
2022-08-30T07:59:27.327Z,100172.09
2022-08-30T08:01:54.520Z,100168.72
2022-08-30T08:04:22.074Z,100167.91
2022-08-30T08:06:49.280Z,100166.94
2022-08-30T08:09:16.501Z,100167.91
2022-08-30T08:11:43.539Z,100169.81
2022-08-30T08:14:10.956Z,100182.72
2022-08-30T08:16:38.896Z,100179.25
2022-08-30T08:19:09.430Z,100175.75
2022-08-30T08:21:37.481Z,100173.69
2022-08-30T08:24:04.785Z,100179.66
2022-08-30T08:26:35.010Z,100183.09
2022-08-30T08:29:02.054Z,100182.84
2022-08-30T08:31:33.851Z,100181.44
2022-08-30T08:34:03.509Z,100178.31
2022-08-30T08:36:31.580Z,100180.16
2022-08-30T08:38:59.412Z,100175.66
2022-08-30T08:41:44.434Z,100183.22
2022-08-30T08:44:23.470Z,100184.66
2022-08-30T08:47:23.873Z,100180.78
2022-08-30T08:49:56.080Z,100180.53
2022-08-30T08:52:57.747Z,100172.72
2022-08-30T08:55:25.878Z,100176.31
2022-08-30T08:57:52.939Z,100169.66
2022-08-30T09:00:22.891Z,100174.53
2022-08-30T09:03:04.661Z,100167.72
2022-08-30T09:05:40.981Z,100168.88
2022-08-30T09:08:11.899Z,100168.19
2022-08-30T09:10:50.270Z,100156.31
2022-08-30T09:13:19.946Z,100159.19
2022-08-30T09:15:54.835Z,100150.16
2022-08-30T09:18:45.591Z,100148.34
2022-08-30T09:21:15.363Z,100145.75
2022-08-30T09:23:51.483Z,100147.91
2022-08-30T09:26:36.167Z,100142.16
2022-08-30T09:29:05.942Z,100146.16
2022-08-30T09:31:49.078Z,100145.53
2022-08-30T09:34:17.568Z,100142.47
2022-08-30T09:36:50.050Z,100138.94
2022-08-30T09:39:31.766Z,100133.72
2022-08-30T09:42:24.234Z,100138.91
2022-08-30T09:44:53.071Z,100130.34
2022-08-30T09:47:29.296Z,100132.72
2022-08-30T09:50:14.398Z,100127.59
2022-08-30T09:52:44.278Z,100129.38
2022-08-30T09:55:17.043Z,100125.03
2022-08-30T09:57:53.309Z,100117.16
2022-08-30T10:00:23.295Z,100119.25
2022-08-30T10:03:34.864Z,100122.31
2022-08-30T10:06:10.977Z,100110.75
2022-08-30T10:09:20.651Z,100118.25
2022-08-30T10:12:07.568Z,100114.09
2022-08-30T10:14:49.618Z,100109.50
2022-08-30T10:17:26.894Z,100103.84
2022-08-30T10:20:15.549Z,100095.88
2022-08-30T10:22:50.561Z,100094.06
2022-08-30T10:25:31.406Z,100095.19
2022-08-30T10:28:22.860Z,100097.50
2022-08-30T10:31:29.458Z,100094.81
2022-08-30T10:34:03.202Z,100094.63
2022-08-30T10:36:53.126Z,100080.88
2022-08-30T10:39:26.866Z,100077.59
2022-08-30T10:42:11.664Z,100068.78
2022-08-30T10:44:45.637Z,100067.97
2022-08-30T10:47:32.185Z,100071.00
2022-08-30T10:50:21.512Z,100061.03
2022-08-30T10:53:19.824Z,100063.78
2022-08-30T10:55:55.434Z,100059.91
2022-08-30T10:58:23.830Z,100054.91
2022-08-30T11:01:07.030Z,100057.94
2022-08-30T11:03:40.533Z,100052.03
2022-08-30T11:06:18.683Z,100052.53
2022-08-30T11:09:11.593Z,100041.97
2022-08-30T11:11:59.050Z,100045.56
2022-08-30T11:14:26.977Z,100048.16
2022-08-30T11:16:56.824Z,100042.66
2022-08-30T11:19:36.866Z,100039.72
2022-08-30T11:22:32.458Z,100038.34
2022-08-30T11:25:12.157Z,100041.56
2022-08-30T11:27:40.929Z,100036.63
2022-08-30T11:30:27.051Z,100031.66
2022-08-30T11:33:12.059Z,100030.09
2022-08-30T11:35:46.041Z,100030.03
2022-08-30T11:38:20.610Z,100035.50
2022-08-30T11:40:56.800Z,100039.78
2022-08-30T11:43:36.775Z,100033.59
2022-08-30T11:46:28.599Z,100027.94
2022-08-30T11:48:58.694Z,100024.31
2022-08-30T11:52:08.280Z,100025.13
2022-08-30T11:55:00.231Z,100021.63
2022-08-30T11:57:49.921Z,100014.09
2022-08-30T12:00:28.459Z,100005.94
2022-08-30T12:02:59.090Z,100010.22
2022-08-30T12:05:38.937Z,100011.59
2022-08-30T12:08:09.586Z,100008.50
2022-08-30T12:10:51.874Z,100004.78
2022-08-30T12:13:37.733Z,100002.81
2022-08-30T12:16:14.942Z,99998.56
2022-08-30T12:18:51.829Z,100003.44
2022-08-30T12:21:21.981Z,99998.16
2022-08-30T12:24:04.634Z,99996.63
2022-08-30T12:26:36.848Z,99982.97
2022-08-30T12:29:21.319Z,99975.34
2022-08-30T12:31:58.930Z,99967.94
2022-08-30T12:34:30.017Z,99979.97
2022-08-30T12:37:00.088Z,99974.63
2022-08-30T14:31:19.990Z,99896.09
2022-08-30T14:33:47.652Z,99888.50
2022-08-30T14:36:15.421Z,99884.53
2022-08-30T14:38:45.186Z,99884.56
2022-08-30T14:41:12.216Z,99885.25
